Time;durP1;ratioP1;P1;durP2;ratioP2;P2;SDS_P1;SDS_P2;PMS_P1;PMS_P2;Temp;Humidity;BMP_temperature;BMP_pressure;BME280_temperature;BME280_humidity;BME280_pressure;Samples;Min_cycle;Max_cycle;Signal;HPM_P1;HPM_P2
2022/04/09 00:01:25;;;;;;;;;;;8.70;99.90;;;;;;6150921;22;19921;-84
2022/04/09 00:03:55;;;;;;;;;;;8.60;99.90;;;;;;6147605;23;19950;-84
2022/04/09 00:06:25;;;;;;;;;;;8.60;99.90;;;;;;6146525;23;20003;-84
2022/04/09 00:08:53;;;;;;;;;;;8.50;99.90;;;;;;6144310;23;19929;-84
2022/04/09 00:11:20;;;;;;;;;;;8.40;99.90;;;;;;6146409;23;19928;-84
2022/04/09 00:13:47;;;;;;;;;;;8.30;99.90;;;;;;6147663;23;19955;-84
2022/04/09 00:16:14;;;;;;;;;;;8.30;99.90;;;;;;6147976;23;19995;-85
2022/04/09 00:18:43;;;;;;;;;;;8.20;99.90;;;;;;6149615;23;20345;-84
2022/04/09 00:21:10;;;;;;;;;;;8.10;99.90;;;;;;6149519;23;19921;-83
2022/04/09 00:23:37;;;;;;;;;;;8.00;99.90;;;;;;6150446;23;19932;-85
2022/04/09 00:26:05;;;;;;;;;;;7.90;99.90;;;;;;6151425;23;19925;-84
2022/04/09 00:28:32;;;;;;;;;;;7.90;99.90;;;;;;6148749;23;19927;-84
2022/04/09 00:31:01;;;;;;;;;;;7.80;99.90;;;;;;6151881;23;19925;-83
2022/04/09 00:33:28;;;;;;;;;;;7.70;99.90;;;;;;6151648;23;19925;-84
2022/04/09 00:36:00;;;;;;;;;;;7.60;99.90;;;;;;6157476;23;19940;-84
2022/04/09 00:38:29;;;;;;;;;;;7.60;99.90;;;;;;6150683;23;20346;-84
2022/04/09 00:40:56;;;;;;;;;;;7.50;99.90;;;;;;6152619;22;19931;-84
2022/04/09 00:43:24;;;;;;;;;;;7.40;99.90;;;;;;6150709;23;20027;-84
2022/04/09 00:45:51;;;;;;;;;;;7.30;99.90;;;;;;6153232;23;19939;-84
2022/04/09 00:48:20;;;;;;;;;;;7.30;99.90;;;;;;6155012;23;19940;-83
2022/04/09 00:50:47;;;;;;;;;;;7.20;99.90;;;;;;6153398;22;19921;-84
2022/04/09 00:53:15;;;;;;;;;;;7.10;99.90;;;;;;6161726;23;19925;-84
2022/04/09 00:58:29;;;;;;;;;;;7.00;99.90;;;;;;6157531;23;19917;-84
2022/04/09 01:00:56;;;;;;;;;;;7.00;99.90;;;;;;6155249;23;19920;-84
2022/04/09 01:03:22;;;;;;;;;;;6.90;99.90;;;;;;6155945;23;19925;-84
2022/04/09 01:05:50;;;;;;;;;;;6.80;99.90;;;;;;6155279;23;19921;-83
2022/04/09 01:08:17;;;;;;;;;;;6.80;99.90;;;;;;6153159;23;19924;-83
2022/04/09 01:10:46;;;;;;;;;;;6.80;99.90;;;;;;6153088;23;19921;-84
2022/04/09 01:13:12;;;;;;;;;;;6.70;99.90;;;;;;6153762;23;19931;-84
2022/04/09 01:15:41;;;;;;;;;;;6.70;99.90;;;;;;6153976;23;19920;-84
2022/04/09 01:18:08;;;;;;;;;;;6.70;99.90;;;;;;6156430;23;19931;-84
2022/04/09 01:20:36;;;;;;;;;;;6.60;99.90;;;;;;6159318;23;19974;-84
2022/04/09 01:23:05;;;;;;;;;;;6.50;99.90;;;;;;6155772;23;20278;-83
2022/04/09 01:25:32;;;;;;;;;;;6.50;99.90;;;;;;6154386;22;20003;-84
2022/04/09 01:28:04;;;;;;;;;;;;;;;;;;6156519;23;19920;-84
2022/04/09 01:30:31;;;;;;;;;;;6.30;99.90;;;;;;6153086;23;20151;-86
2022/04/09 01:32:58;;;;;;;;;;;6.30;99.90;;;;;;6152874;23;19931;-85
2022/04/09 01:35:26;;;;;;;;;;;6.30;99.90;;;;;;6152987;23;20036;-85
2022/04/09 01:37:55;;;;;;;;;;;;;;;;;;6154231;23;19921;-85
2022/04/09 01:40:23;;;;;;;;;;;6.20;99.90;;;;;;6154995;23;20139;-86
2022/04/09 01:42:51;;;;;;;;;;;6.20;99.90;;;;;;6154605;23;19921;-85
2022/04/09 01:45:19;;;;;;;;;;;6.10;99.90;;;;;;6151662;23;20403;-85
2022/04/09 01:47:46;;;;;;;;;;;6.10;99.90;;;;;;6153639;23;19964;-85
2022/04/09 01:50:14;;;;;;;;;;;6.10;99.90;;;;;;6154148;23;19955;-86
2022/04/09 01:52:42;;;;;;;;;;;6.00;99.90;;;;;;6152711;23;19974;-85
2022/04/09 01:55:11;;;;;;;;;;;5.90;99.90;;;;;;6155972;22;19928;-85
2022/04/09 01:57:44;;;;;;;;;;;5.90;99.90;;;;;;6156121;23;19924;-85
2022/04/09 02:00:13;;;;;;;;;;;5.90;99.90;;;;;;6153823;23;19960;-85
2022/04/09 02:02:47;;;;;;;;;;;5.90;99.90;;;;;;6153458;23;19921;-85
2022/04/09 02:05:14;;;;;;;;;;;5.80;99.90;;;;;;6153124;23;20305;-85
2022/04/09 02:07:44;;;;;;;;;;;5.80;99.90;;;;;;6148011;22;19927;-78
2022/04/09 02:10:15;;;;;;;;;;;5.70;99.90;;;;;;6147211;22;19951;-80
2022/04/09 02:12:44;;;;;;;;;;;5.70;99.90;;;;;;6146509;23;19909;-80
2022/04/09 02:15:13;;;;;;;;;;;5.70;99.90;;;;;;6120881;23;19925;-79
2022/04/09 02:17:41;;;;;;;;;;;5.60;99.90;;;;;;6116814;23;20389;-79
2022/04/09 02:20:08;;;;;;;;;;;5.60;99.90;;;;;;6119609;23;20345;-79
2022/04/09 02:22:36;;;;;;;;;;;5.60;99.90;;;;;;6117877;23;19964;-79
2022/04/09 02:25:03;;;;;;;;;;;5.50;99.90;;;;;;6117102;23;19929;-79
2022/04/09 02:27:30;;;;;;;;;;;5.50;99.90;;;;;;6117539;23;19925;-78
2022/04/09 02:30:01;;;;;;;;;;;5.40;99.90;;;;;;6117917;23;19921;-78
2022/04/09 02:32:31;;;;;;;;;;;5.40;99.90;;;;;;6117954;23;20007;-79
2022/04/09 02:34:58;;;;;;;;;;;5.40;99.90;;;;;;6117496;23;20328;-79
2022/04/09 02:37:28;;;;;;;;;;;5.40;99.90;;;;;;6116993;23;19928;-78
2022/04/09 02:39:55;;;;;;;;;;;5.30;99.90;;;;;;6117294;23;20238;-79
2022/04/09 02:42:22;;;;;;;;;;;5.30;99.90;;;;;;6117200;23;19948;-79
2022/04/09 02:44:49;;;;;;;;;;;5.20;99.90;;;;;;6118418;23;19925;-79
2022/04/09 02:47:18;;;;;;;;;;;5.20;99.90;;;;;;6116755;23;19921;-79
2022/04/09 02:49:45;;;;;;;;;;;5.10;99.90;;;;;;6117718;23;19925;-79
2022/04/09 02:52:13;;;;;;;;;;;5.10;99.90;;;;;;6115724;23;19975;-79
2022/04/09 02:54:40;;;;;;;;;;;5.10;99.90;;;;;;6119091;23;19928;-79
2022/04/09 02:57:07;;;;;;;;;;;5.10;99.90;;;;;;6116920;23;19921;-79
2022/04/09 02:59:40;;;;;;;;;;;5.10;99.90;;;;;;6117659;23;19932;-79
2022/04/09 03:02:07;;;;;;;;;;;5.10;99.90;;;;;;6115815;23;19955;-79
2022/04/09 03:04:36;;;;;;;;;;;5.10;99.90;;;;;;6117608;23;19925;-79
2022/04/09 03:07:03;;;;;;;;;;;5.00;99.90;;;;;;6116996;23;20141;-79
2022/04/09 03:09:30;;;;;;;;;;;5.10;99.90;;;;;;6116646;23;20074;-79
2022/04/09 03:11:57;;;;;;;;;;;5.00;99.90;;;;;;6118152;23;19921;-79
2022/04/09 03:14:23;;;;;;;;;;;5.00;99.90;;;;;;6116783;23;19925;-78
2022/04/09 03:16:50;;;;;;;;;;;4.90;99.90;;;;;;6117438;23;20003;-78
2022/04/09 03:19:19;;;;;;;;;;;4.90;99.90;;;;;;6115681;23;19925;-79
2022/04/09 03:21:48;;;;;;;;;;;5.00;99.90;;;;;;6116191;23;20242;-78
2022/04/09 03:24:15;;;;;;;;;;;4.90;99.90;;;;;;6116933;23;19921;-79
2022/04/09 03:26:42;;;;;;;;;;;4.80;99.90;;;;;;6115573;23;19928;-78
2022/04/09 03:29:09;;;;;;;;;;;4.80;99.90;;;;;;6117393;23;20304;-79
2022/04/09 03:31:38;;;;;;;;;;;4.80;99.90;;;;;;6116448;23;20241;-79
2022/04/09 03:34:07;;;;;;;;;;;4.70;99.90;;;;;;6117959;23;20349;-79
2022/04/09 03:36:35;;;;;;;;;;;4.70;99.90;;;;;;6116837;23;20000;-79
2022/04/09 03:39:03;;;;;;;;;;;4.70;99.90;;;;;;6117022;23;20266;-78
2022/04/09 03:41:30;;;;;;;;;;;4.60;99.90;;;;;;6118645;23;19921;-79
2022/04/09 03:44:03;;;;;;;;;;;4.60;99.90;;;;;;6116737;23;19928;-79
2022/04/09 03:46:34;;;;;;;;;;;4.60;99.90;;;;;;6116965;23;19925;-80
2022/04/09 03:49:05;;;;;;;;;;;4.70;99.90;;;;;;6118637;23;19943;-79
2022/04/09 03:51:35;;;;;;;;;;;4.70;99.90;;;;;;6116997;23;20427;-78
2022/04/09 03:54:04;;;;;;;;;;;4.70;99.90;;;;;;6115549;23;19932;-79
2022/04/09 03:56:31;;;;;;;;;;;4.60;99.90;;;;;;6116923;23;20257;-79
2022/04/09 03:58:58;;;;;;;;;;;4.60;99.90;;;;;;6117135;23;20367;-79
2022/04/09 04:01:27;;;;;;;;;;;4.60;99.90;;;;;;6117093;23;20004;-79
2022/04/09 04:03:57;;;;;;;;;;;4.60;99.90;;;;;;6116898;23;20345;-79
2022/04/09 04:06:25;;;;;;;;;;;4.60;99.90;;;;;;6117422;23;20012;-79
2022/04/09 04:08:56;;;;;;;;;;;4.50;99.90;;;;;;6116754;23;19943;-79
2022/04/09 04:11:25;;;;;;;;;;;4.50;99.90;;;;;;6115314;23;20020;-78
2022/04/09 04:13:53;;;;;;;;;;;4.40;99.90;;;;;;6116525;23;20004;-79
2022/04/09 04:16:22;;;;;;;;;;;4.50;99.90;;;;;;6116756;23;19932;-79
2022/04/09 04:18:49;;;;;;;;;;;4.50;99.90;;;;;;6116560;23;19925;-79
2022/04/09 04:21:17;;;;;;;;;;;4.50;99.90;;;;;;6117084;23;20315;-79
2022/04/09 04:23:53;;;;;;;;;;;4.40;99.90;;;;;;6116831;23;19956;-78
2022/04/09 04:26:24;;;;;;;;;;;4.30;99.90;;;;;;6117394;23;19921;-79
2022/04/09 04:28:56;;;;;;;;;;;4.30;99.90;;;;;;6115978;23;19943;-79
2022/04/09 04:31:24;;;;;;;;;;;4.30;99.90;;;;;;6116189;23;19928;-79
2022/04/09 04:33:52;;;;;;;;;;;4.20;99.90;;;;;;6116879;23;19931;-79
2022/04/09 04:36:19;;;;;;;;;;;4.20;99.90;;;;;;6116651;23;20373;-78
2022/04/09 04:38:47;;;;;;;;;;;4.20;99.90;;;;;;6116775;23;19925;-79
2022/04/09 04:41:14;;;;;;;;;;;4.20;99.90;;;;;;6116973;23;19921;-79
2022/04/09 04:43:48;;;;;;;;;;;4.20;99.90;;;;;;6116160;23;19925;-79
2022/04/09 04:46:15;;;;;;;;;;;4.20;99.90;;;;;;6117262;23;19978;-79
2022/04/09 04:48:42;;;;;;;;;;;4.20;99.90;;;;;;6118267;23;20365;-78
2022/04/09 04:51:10;;;;;;;;;;;4.20;99.90;;;;;;6115607;23;20266;-78
2022/04/09 04:53:38;;;;;;;;;;;4.20;99.90;;;;;;6116673;23;19921;-79
2022/04/09 04:56:06;;;;;;;;;;;4.20;99.90;;;;;;6116387;23;19928;-78
2022/04/09 04:58:42;;;;;;;;;;;4.20;99.90;;;;;;6116959;23;19921;-78
2022/04/09 05:01:10;;;;;;;;;;;4.20;99.90;;;;;;6115258;23;19924;-78
2022/04/09 05:03:42;;;;;;;;;;;4.10;99.90;;;;;;6116874;23;19935;-79
2022/04/09 05:06:18;;;;;;;;;;;4.20;99.90;;;;;;6117500;23;19928;-78
2022/04/09 05:08:46;;;;;;;;;;;4.30;99.90;;;;;;6116515;23;19944;-78
2022/04/09 05:11:18;;;;;;;;;;;4.30;99.90;;;;;;6114970;23;19948;-79
2022/04/09 05:13:45;;;;;;;;;;;4.20;99.90;;;;;;6116053;23;19925;-78
2022/04/09 05:16:15;;;;;;;;;;;4.10;99.90;;;;;;6116520;23;19925;-79
2022/04/09 05:18:53;;;;;;;;;;;4.10;99.90;;;;;;6117326;23;20174;-79
2022/04/09 05:21:20;;;;;;;;;;;4.10;99.90;;;;;;6114461;23;19921;-79
2022/04/09 05:23:47;;;;;;;;;;;4.00;99.90;;;;;;6117160;23;19920;-78
2022/04/09 05:26:17;;;;;;;;;;;4.00;99.90;;;;;;6115583;23;19925;-78
2022/04/09 05:28:46;;;;;;;;;;;4.00;99.90;;;;;;6117287;23;19963;-78
2022/04/09 05:31:16;;;;;;;;;;;3.90;99.90;;;;;;6116021;23;19967;-78
2022/04/09 05:33:43;;;;;;;;;;;3.90;99.90;;;;;;6117187;23;19921;-79
2022/04/09 05:36:11;;;;;;;;;;;4.00;99.90;;;;;;6117842;23;19924;-79
2022/04/09 05:38:37;;;;;;;;;;;3.80;99.90;;;;;;6116152;23;19979;-79
2022/04/09 05:41:05;;;;;;;;;;;3.90;99.90;;;;;;6117848;23;19947;-79
2022/04/09 05:43:33;;;;;;;;;;;3.90;99.90;;;;;;6119003;23;19920;-79
2022/04/09 05:46:01;;;;;;;;;;;3.80;99.90;;;;;;6118728;23;20357;-79
2022/04/09 05:48:34;;;;;;;;;;;3.80;99.90;;;;;;6118522;23;20393;-78
2022/04/09 05:51:01;;;;;;;;;;;3.90;99.90;;;;;;6118656;23;19921;-78
2022/04/09 05:53:33;;;;;;;;;;;3.90;99.90;;;;;;6247057;22;19925;-79
2022/04/09 05:56:02;;;;;;;;;;;3.80;99.90;;;;;;6119056;23;19925;-78
2022/04/09 05:58:36;;;;;;;;;;;3.80;99.90;;;;;;6137570;23;20436;-78
2022/04/09 06:01:06;;;;;;;;;;;3.80;99.90;;;;;;6143212;23;19944;-79
2022/04/09 06:03:38;;;;;;;;;;;3.80;99.90;;;;;;6129868;23;19952;-79
2022/04/09 06:06:06;;;;;;;;;;;3.80;99.90;;;;;;6119075;23;19927;-79
2022/04/09 06:08:51;;;;;;;;;;;3.80;99.90;;;;;;6118732;23;19921;-79
2022/04/09 06:11:24;;;;;;;;;;;3.80;99.90;;;;;;6118008;23;19924;-79
2022/04/09 06:13:54;;;;;;;;;;;3.80;99.90;;;;;;6114587;23;19960;-79
2022/04/09 06:16:22;;;;;;;;;;;3.80;99.90;;;;;;6109131;23;19921;-78
2022/04/09 06:18:54;;;;;;;;;;;3.90;99.90;;;;;;6115181;23;20247;-78
2022/04/09 06:21:23;;;;;;;;;;;3.90;99.90;;;;;;6115168;23;19945;-78
2022/04/09 06:23:51;;;;;;;;;;;3.80;99.90;;;;;;6115083;23;20005;-79
2022/04/09 06:26:18;;;;;;;;;;;3.90;99.90;;;;;;6114117;23;19929;-79
2022/04/09 06:28:46;;;;;;;;;;;3.90;99.90;;;;;;6115263;23;19925;-78
2022/04/09 06:31:13;;;;;;;;;;;3.80;99.90;;;;;;6114042;23;20002;-79
2022/04/09 06:33:41;;;;;;;;;;;3.80;99.90;;;;;;6113765;23;19921;-79
2022/04/09 06:36:12;;;;;;;;;;;3.80;99.90;;;;;;6113839;23;20112;-79
2022/04/09 06:38:40;;;;;;;;;;;3.80;99.90;;;;;;6113201;23;19929;-79
2022/04/09 06:41:14;;;;;;;;;;;3.80;99.90;;;;;;6114770;23;19928;-79
2022/04/09 06:43:42;;;;;;;;;;;3.80;99.90;;;;;;6113568;23;19979;-78
2022/04/09 06:46:29;;;;;;;;;;;3.80;99.90;;;;;;6121982;23;19925;-78
2022/04/09 06:49:15;;;;;;;;;;;3.80;99.90;;;;;;6115513;23;20337;-78
2022/04/09 06:51:47;;;;;;;;;;;3.90;99.90;;;;;;6115029;23;20007;-78
2022/04/09 06:54:44;;;;;;;;;;;3.80;99.90;;;;;;6034869;23;19922;-78
2022/04/09 06:57:13;;;;;;;;;;;3.80;99.90;;;;;;6111455;23;20265;-79
2022/04/09 06:59:45;;;;;;;;;;;3.80;99.90;;;;;;6107312;23;20320;-78
2022/04/09 07:02:13;;;;;;;;;;;3.80;99.90;;;;;;6108863;23;19925;-78
2022/04/09 07:04:44;;;;;;;;;;;3.80;99.90;;;;;;6115594;23;19932;-76
2022/04/09 07:07:21;;;;;;;;;;;3.80;99.90;;;;;;6116001;23;19931;-80
2022/04/09 07:09:49;;;;;;;;;;;3.90;99.90;;;;;;6117882;23;19921;-78
2022/04/09 07:12:16;;;;;;;;;;;3.80;99.90;;;;;;6118867;23;20388;-78
2022/04/09 07:14:43;;;;;;;;;;;3.90;99.90;;;;;;6116323;23;19932;-78
2022/04/09 07:17:11;;;;;;;;;;;3.90;99.90;;;;;;6117939;23;19921;-79
2022/04/09 07:19:42;;;;;;;;;;;3.90;99.90;;;;;;6117526;23;19921;-78
2022/04/09 07:22:12;;;;;;;;;;;3.90;99.90;;;;;;6115417;23;19921;-78
2022/04/09 07:24:41;;;;;;;;;;;3.90;99.90;;;;;;6116870;23;19968;-79
2022/04/09 07:27:08;;;;;;;;;;;3.90;99.90;;;;;;6116789;23;19928;-79
2022/04/09 07:29:35;;;;;;;;;;;4.00;99.90;;;;;;6117191;23;19928;-79
2022/04/09 07:32:02;;;;;;;;;;;4.00;99.90;;;;;;6119254;23;19990;-78
2022/04/09 07:34:29;;;;;;;;;;;4.00;99.90;;;;;;6119286;23;19975;-79
2022/04/09 07:37:00;;;;;;;;;;;4.00;99.90;;;;;;6116840;23;19984;-81
2022/04/09 07:39:30;;;;;;;;;;;4.00;99.90;;;;;;6116399;23;19970;-78
2022/04/09 07:42:01;;;;;;;;;;;4.00;99.90;;;;;;6115158;23;19925;-78
2022/04/09 07:44:28;;;;;;;;;;;4.00;99.90;;;;;;6111656;23;20623;-78
2022/04/09 07:46:55;;;;;;;;;;;4.00;99.90;;;;;;6115368;23;19921;-78
2022/04/09 07:49:22;;;;;;;;;;;4.00;99.90;;;;;;6114730;23;19956;-77
2022/04/09 07:51:49;;;;;;;;;;;4.00;99.90;;;;;;6115373;23;19921;-79
2022/04/09 07:54:16;;;;;;;;;;;4.10;99.90;;;;;;6112774;23;19921;-78
2022/04/09 07:56:43;;;;;;;;;;;4.10;99.90;;;;;;6108571;23;19932;-78
2022/04/09 07:59:11;;;;;;;;;;;4.10;99.90;;;;;;6110474;23;20004;-78
2022/04/09 08:01:38;;;;;;;;;;;4.10;99.90;;;;;;6116816;23;19928;-78
2022/04/09 08:04:06;;;;;;;;;;;4.10;99.90;;;;;;6111881;23;20385;-78
2022/04/09 08:06:33;;;;;;;;;;;4.10;99.90;;;;;;6114305;23;19931;-77
2022/04/09 08:09:00;;;;;;;;;;;4.20;99.90;;;;;;6114656;23;19925;-78
2022/04/09 08:11:28;;;;;;;;;;;4.20;99.90;;;;;;6114019;23;19925;-78
2022/04/09 08:13:55;;;;;;;;;;;4.10;99.90;;;;;;6129671;22;19925;-84
2022/04/09 08:16:25;;;;;;;;;;;4.10;99.90;;;;;;6138387;23;19928;-83
2022/04/09 08:18:52;;;;;;;;;;;4.10;99.90;;;;;;6113889;23;19932;-82
2022/04/09 08:21:19;;;;;;;;;;;4.20;99.90;;;;;;6134298;23;20484;-82
2022/04/09 08:23:47;;;;;;;;;;;4.10;99.90;;;;;;6137258;23;20342;-82
2022/04/09 08:26:14;;;;;;;;;;;4.20;99.90;;;;;;6120873;23;20300;-82
2022/04/09 08:28:41;;;;;;;;;;;4.20;99.90;;;;;;6141413;23;19945;-83
2022/04/09 08:31:08;;;;;;;;;;;4.10;99.90;;;;;;6137437;23;19921;-81
2022/04/09 08:33:36;;;;;;;;;;;4.20;99.90;;;;;;6138939;23;19925;-81
2022/04/09 08:36:04;;;;;;;;;;;4.20;99.90;;;;;;6116961;23;19932;-82
2022/04/09 08:38:31;;;;;;;;;;;4.20;99.90;;;;;;6139195;23;19929;-83
2022/04/09 08:41:00;;;;;;;;;;;4.20;99.90;;;;;;6112630;23;19971;-83
2022/04/09 08:43:27;;;;;;;;;;;4.20;99.90;;;;;;6113032;23;19925;-81
2022/04/09 08:45:53;;;;;;;;;;;4.20;99.90;;;;;;6137447;23;19955;-81
2022/04/09 08:48:21;;;;;;;;;;;4.20;99.90;;;;;;6112467;22;19968;-80
2022/04/09 08:50:50;;;;;;;;;;;4.20;99.90;;;;;;6139307;23;19921;-80
2022/04/09 08:53:17;;;;;;;;;;;4.20;99.90;;;;;;6115626;23;19921;-82
2022/04/09 08:55:45;;;;;;;;;;;4.20;99.90;;;;;;6115192;23;19924;-82
2022/04/09 08:58:12;;;;;;;;;;;4.30;99.90;;;;;;6118368;23;20595;-81
2022/04/09 09:00:39;;;;;;;;;;;4.20;99.90;;;;;;6141613;23;19931;-82
2022/04/09 09:03:10;;;;;;;;;;;4.20;99.90;;;;;;6115457;23;19925;-81
2022/04/09 09:05:38;;;;;;;;;;;4.20;99.90;;;;;;6139711;23;19929;-82
2022/04/09 09:08:07;;;;;;;;;;;4.30;99.90;;;;;;6138540;23;19925;-79
2022/04/09 09:10:35;;;;;;;;;;;4.30;99.90;;;;;;6134077;23;19998;-81
2022/04/09 09:13:04;;;;;;;;;;;4.30;99.90;;;;;;6117784;23;19991;-83
2022/04/09 09:15:31;;;;;;;;;;;4.20;99.90;;;;;;6135668;23;20115;-82
2022/04/09 09:17:59;;;;;;;;;;;4.20;99.90;;;;;;6113893;23;19925;-82
2022/04/09 09:20:26;;;;;;;;;;;4.30;99.90;;;;;;6111808;23;19921;-80
2022/04/09 09:22:54;;;;;;;;;;;4.20;99.90;;;;;;6137526;23;19921;-80
2022/04/09 09:25:22;;;;;;;;;;;4.20;99.90;;;;;;6115841;22;19921;-80
2022/04/09 09:27:58;;;;;;;;;;;4.20;99.90;;;;;;6108955;23;20261;-82
2022/04/09 09:30:25;;;;;;;;;;;4.30;99.90;;;;;;6117168;23;19925;-79
2022/04/09 09:33:08;;;;;;;;;;;4.30;99.90;;;;;;6108300;23;19932;-79
2022/04/09 09:35:47;;;;;;;;;;;4.30;99.90;;;;;;6112580;23;19951;-80
2022/04/09 09:38:21;;;;;;;;;;;4.40;99.90;;;;;;6133680;23;19932;-80
2022/04/09 09:40:49;;;;;;;;;;;4.40;99.90;;;;;;6137158;23;19921;-83
2022/04/09 09:43:19;;;;;;;;;;;4.40;99.90;;;;;;6111944;23;20459;-81
2022/04/09 09:45:46;;;;;;;;;;;4.40;99.90;;;;;;6137975;23;19925;-79
2022/04/09 09:48:23;;;;;;;;;;;4.40;99.90;;;;;;6113350;23;20407;-84
2022/04/09 09:50:50;;;;;;;;;;;4.40;99.90;;;;;;6136489;23;19932;-83
2022/04/09 09:53:26;;;;;;;;;;;4.40;99.90;;;;;;6110337;23;19921;-81
2022/04/09 09:55:55;;;;;;;;;;;4.40;99.90;;;;;;6115360;23;19929;-85
2022/04/09 09:58:23;;;;;;;;;;;4.40;99.90;;;;;;6114321;22;19936;-83
2022/04/09 10:00:50;;;;;;;;;;;4.50;99.90;;;;;;6119022;23;19921;-82
2022/04/09 10:03:17;;;;;;;;;;;4.50;99.90;;;;;;6141010;23;20021;-83
2022/04/09 10:05:44;;;;;;;;;;;4.60;99.90;;;;;;6105213;23;19944;-83
2022/04/09 10:08:11;;;;;;;;;;;4.50;99.90;;;;;;6108241;23;19948;-80
2022/04/09 10:10:38;;;;;;;;;;;4.60;99.90;;;;;;6109253;23;19925;-84
2022/04/09 10:13:07;;;;;;;;;;;4.60;99.90;;;;;;6114348;23;19928;-87
2022/04/09 10:15:34;;;;;;;;;;;4.50;99.90;;;;;;6116343;23;20388;-86
2022/04/09 10:18:02;;;;;;;;;;;4.50;99.90;;;;;;6114919;23;19948;-82
2022/04/09 10:20:29;;;;;;;;;;;4.50;99.90;;;;;;6116844;23;19921;-82
2022/04/09 10:22:58;;;;;;;;;;;4.60;99.90;;;;;;6112336;23;19921;-82
2022/04/09 10:25:25;;;;;;;;;;;4.50;99.90;;;;;;6115244;23;20340;-84
2022/04/09 10:27:53;;;;;;;;;;;4.60;99.90;;;;;;6112165;23;20610;-83
2022/04/09 10:30:22;;;;;;;;;;;4.60;99.90;;;;;;6139227;23;19925;-86
2022/04/09 10:32:51;;;;;;;;;;;4.60;99.90;;;;;;6138631;23;19932;-81
2022/04/09 10:35:28;;;;;;;;;;;4.60;99.90;;;;;;6140052;23;20475;-83
2022/04/09 10:38:13;;;;;;;;;;;4.60;99.90;;;;;;6119450;23;19979;-85
2022/04/09 10:40:56;;;;;;;;;;;4.60;99.90;;;;;;6116039;23;20376;-83
2022/04/09 10:43:38;;;;;;;;;;;4.60;99.90;;;;;;6115243;23;19925;-81
2022/04/09 10:46:21;;;;;;;;;;;4.70;99.90;;;;;;6117852;22;19925;-80
2022/04/09 10:48:48;;;;;;;;;;;4.70;99.90;;;;;;6120682;23;19999;-81
2022/04/09 10:51:16;;;;;;;;;;;4.70;99.90;;;;;;6119310;23;20388;-83
2022/04/09 10:53:44;;;;;;;;;;;4.70;99.90;;;;;;6138465;23;19943;-81
2022/04/09 10:56:17;;;;;;;;;;;4.70;99.90;;;;;;6116388;23;20552;-86
2022/04/09 10:59:03;;;;;;;;;;;4.70;99.90;;;;;;6117085;23;19929;-82
2022/04/09 11:01:48;;;;;;;;;;;4.80;99.90;;;;;;6115342;23;20000;-85
2022/04/09 11:04:35;;;;;;;;;;;4.80;99.90;;;;;;6112083;23;20171;-80
2022/04/09 11:07:04;;;;;;;;;;;4.80;99.90;;;;;;6114493;23;20475;-81
2022/04/09 11:09:48;;;;;;;;;;;4.80;99.90;;;;;;6114321;23;19925;-82
2022/04/09 11:12:15;;;;;;;;;;;4.80;99.90;;;;;;6138988;23;19960;-80
2022/04/09 11:14:43;;;;;;;;;;;4.80;99.90;;;;;;6137295;23;19929;-80
2022/04/09 11:17:19;;;;;;;;;;;4.90;99.90;;;;;;6132255;23;19925;-80
2022/04/09 11:19:47;;;;;;;;;;;4.90;99.90;;;;;;6111527;23;19925;-81
2022/04/09 11:22:15;;;;;;;;;;;4.90;99.90;;;;;;6114897;23;19925;-82
2022/04/09 11:24:43;;;;;;;;;;;4.90;99.90;;;;;;6143467;23;19921;-82
2022/04/09 11:27:10;;;;;;;;;;;4.90;99.90;;;;;;6141230;22;19925;-81
2022/04/09 11:29:38;;;;;;;;;;;4.90;99.90;;;;;;6114272;23;19988;-82
2022/04/09 11:32:05;;;;;;;;;;;4.90;99.90;;;;;;6114618;23;19932;-82
2022/04/09 11:34:46;;;;;;;;;;;5.00;99.90;;;;;;6135038;23;19947;-81
2022/04/09 11:37:14;;;;;;;;;;;4.90;99.90;;;;;;6113953;23;19921;-81
2022/04/09 11:39:44;;;;;;;;;;;5.00;99.90;;;;;;6107034;23;20361;-80
2022/04/09 11:42:11;;;;;;;;;;;5.00;99.90;;;;;;6106633;23;19932;-82
2022/04/09 11:44:40;;;;;;;;;;;5.00;99.90;;;;;;6109855;23;19999;-84
2022/04/09 11:47:09;;;;;;;;;;;5.00;99.90;;;;;;6117385;23;19921;-83
2022/04/09 11:49:37;;;;;;;;;;;5.00;99.90;;;;;;6115855;23;19999;-81
2022/04/09 11:52:04;;;;;;;;;;;5.00;99.90;;;;;;6115330;23;19956;-81
2022/04/09 11:54:33;;;;;;;;;;;5.10;99.90;;;;;;6112572;23;19924;-82
2022/04/09 11:57:00;;;;;;;;;;;5.10;99.90;;;;;;6114299;23;20024;-81
2022/04/09 11:59:27;;;;;;;;;;;5.10;99.90;;;;;;6110045;23;20368;-83
2022/04/09 12:01:55;;;;;;;;;;;5.10;99.90;;;;;;6129104;23;20126;-80
2022/04/09 12:04:23;;;;;;;;;;;5.20;99.90;;;;;;6106836;23;19929;-80
2022/04/09 12:06:50;;;;;;;;;;;5.20;99.90;;;;;;6108883;23;20689;-80
2022/04/09 12:09:17;;;;;;;;;;;5.20;99.90;;;;;;6112642;23;19928;-80
2022/04/09 12:11:51;;;;;;;;;;;5.20;99.90;;;;;;6117140;23;19986;-79
2022/04/09 12:14:20;;;;;;;;;;;5.30;99.90;;;;;;6143187;23;20246;-80
2022/04/09 12:16:47;;;;;;;;;;;5.30;99.90;;;;;;6116540;23;19925;-80
2022/04/09 12:19:14;;;;;;;;;;;5.30;99.90;;;;;;6114162;23;20403;-79
2022/04/09 12:21:41;;;;;;;;;;;5.30;99.90;;;;;;6139074;23;19921;-80
2022/04/09 12:24:10;;;;;;;;;;;5.30;99.90;;;;;;6121530;23;19950;-80
2022/04/09 12:26:37;;;;;;;;;;;5.40;99.90;;;;;;6120789;22;19924;-81
2022/04/09 12:29:11;;;;;;;;;;;5.40;99.90;;;;;;6120704;22;20130;-80
2022/04/09 12:31:38;;;;;;;;;;;5.40;99.90;;;;;;6142530;23;19951;-81
2022/04/09 12:34:06;;;;;;;;;;;5.40;99.90;;;;;;6121309;23;19952;-81
2022/04/09 12:36:33;;;;;;;;;;;5.40;99.90;;;;;;6120622;23;20257;-82
2022/04/09 12:39:00;;;;;;;;;;;5.40;99.90;;;;;;6120393;23;19928;-80
2022/04/09 12:41:28;;;;;;;;;;;5.50;99.90;;;;;;6118304;23;19925;-82
2022/04/09 12:43:56;;;;;;;;;;;5.50;99.90;;;;;;6120449;23;20004;-81
2022/04/09 12:46:24;;;;;;;;;;;5.50;99.90;;;;;;6142458;23;19924;-81
2022/04/09 12:48:52;;;;;;;;;;;5.60;99.90;;;;;;6120465;23;19920;-81
2022/04/09 12:51:20;;;;;;;;;;;5.60;99.90;;;;;;6143534;23;20340;-82
2022/04/09 12:53:48;;;;;;;;;;;5.70;99.90;;;;;;6142860;23;19924;-81
2022/04/09 12:56:16;;;;;;;;;;;5.60;99.90;;;;;;6144834;23;20357;-80
2022/04/09 12:58:43;;;;;;;;;;;5.60;99.90;;;;;;6118382;23;19928;-80
2022/04/09 13:01:13;;;;;;;;;;;5.60;99.90;;;;;;6118830;23;19921;-82
2022/04/09 13:03:42;;;;;;;;;;;5.60;99.90;;;;;;6143651;23;20024;-82
2022/04/09 13:06:09;;;;;;;;;;;5.60;99.90;;;;;;6120268;23;19929;-81
2022/04/09 13:08:36;;;;;;;;;;;5.60;99.90;;;;;;6120926;23;19929;-82
2022/04/09 13:11:04;;;;;;;;;;;5.60;99.90;;;;;;6120849;23;19933;-80
2022/04/09 13:13:30;;;;;;;;;;;5.60;99.90;;;;;;6119986;23;20325;-80
2022/04/09 13:15:58;;;;;;;;;;;5.70;99.90;;;;;;6118419;23;20263;-81
2022/04/09 13:18:25;;;;;;;;;;;5.70;99.90;;;;;;6115095;23;19924;-80
2022/04/09 13:20:53;;;;;;;;;;;5.70;99.90;;;;;;6119305;23;19952;-81
2022/04/09 13:23:20;;;;;;;;;;;5.80;99.90;;;;;;6120799;23;19921;-80
2022/04/09 13:25:49;;;;;;;;;;;5.80;99.90;;;;;;6117495;23;20112;-80
2022/04/09 13:28:16;;;;;;;;;;;5.80;99.90;;;;;;6120255;23;19932;-80
2022/04/09 13:30:43;;;;;;;;;;;5.90;99.90;;;;;;6119043;23;19972;-82
2022/04/09 13:33:10;;;;;;;;;;;5.90;99.90;;;;;;6099836;22;20118;-80
2022/04/09 13:35:37;;;;;;;;;;;6.00;99.90;;;;;;6105565;23;20791;-81
2022/04/09 13:38:05;;;;;;;;;;;6.10;99.90;;;;;;6106916;23;20574;-79
2022/04/09 13:40:32;;;;;;;;;;;6.20;99.90;;;;;;6113911;23;19942;-79
2022/04/09 13:43:00;;;;;;;;;;;6.20;99.90;;;;;;6110837;23;19978;-80
2022/04/09 13:45:27;;;;;;;;;;;6.30;99.90;;;;;;6113771;22;19971;-79
2022/04/09 13:47:54;;;;;;;;;;;6.40;99.90;;;;;;6138373;23;19975;-79
2022/04/09 13:50:22;;;;;;;;;;;6.40;99.90;;;;;;6109398;23;19925;-78
2022/04/09 13:52:49;;;;;;;;;;;6.50;99.90;;;;;;6103932;23;19995;-77
2022/04/09 13:55:17;;;;;;;;;;;6.60;99.90;;;;;;6126175;23;19925;-78
2022/04/09 13:57:44;;;;;;;;;;;6.60;99.90;;;;;;6130407;23;19956;-75
2022/04/09 14:00:12;;;;;;;;;;;6.70;99.90;;;;;;6107863;23;19925;-76
2022/04/09 14:02:40;;;;;;;;;;;6.70;99.90;;;;;;6102599;23;20363;-78
2022/04/09 14:05:08;;;;;;;;;;;6.70;99.90;;;;;;6109202;23;20308;-76
2022/04/09 14:07:35;;;;;;;;;;;6.80;99.90;;;;;;6106306;23;20659;-76
2022/04/09 14:10:03;;;;;;;;;;;6.80;99.90;;;;;;6107691;23;20103;-77
2022/04/09 14:12:30;;;;;;;;;;;;;;;;;;6126702;23;19921;-77
2022/04/09 14:14:59;;;;;;;;;;;6.80;99.90;;;;;;6114872;23;19921;-79
2022/04/09 14:17:26;;;;;;;;;;;6.90;99.90;;;;;;6114466;23;20076;-77
2022/04/09 14:19:53;;;;;;;;;;;6.90;99.90;;;;;;6109755;23;20004;-76
2022/04/09 14:22:20;;;;;;;;;;;6.90;99.90;;;;;;6113567;23;19975;-78
2022/04/09 14:24:47;;;;;;;;;;;6.90;99.90;;;;;;6108025;23;19925;-77
2022/04/09 14:27:14;;;;;;;;;;;7.00;99.90;;;;;;6114553;23;19932;-77
2022/04/09 14:29:41;;;;;;;;;;;7.00;99.90;;;;;;6111923;23;20020;-86
2022/04/09 14:34:45;;;;;;;;;;;7.10;99.90;;;;;;6142000;22;20402;-81
2022/04/09 14:37:16;;;;;;;;;;;7.10;99.90;;;;;;6143982;22;19990;-80
2022/04/09 14:39:52;;;;;;;;;;;7.10;99.90;;;;;;6126684;23;20050;-82
2022/04/09 14:42:19;;;;;;;;;;;7.10;99.90;;;;;;6124103;23;20261;-82
2022/04/09 14:44:47;;;;;;;;;;;7.10;99.90;;;;;;6131113;23;19928;-81
2022/04/09 14:47:15;;;;;;;;;;;7.10;99.90;;;;;;6123437;23;20008;-82